Terminal Aerodrome Forecast
Issued by NWS

Home | Current Version | Previous Version | Text Only | Print | Product List | Glossary On
Versions: 1 2 3 4 5 6 7 8 9 10 11 12 13
000
FTAK31 PAJN 031100
TAFAPG
TAF
PAPG 031130Z 0312/0412 VRB03KT P6SM BKN150
     FM031800 VRB05KT P6SM VCSH BKN040 BKN080
     FM040000 VRB03KT P6SM VCSH BKN040 OVC060
     FM040600 VRB03KT P6SM VCSH BKN050
      AMD LTD TO CLD VIS AND WIND 0312/0315=

USA.gov is the U.S. government's official web portal to all federal, state and local government web resources and services.